Time,TemperatureF,DewpointF,PressureIn,WindDirection,WindDirectionDegrees,WindSpeedMPH,WindSpeedGustMPH,Humidity,HourlyPrecipIn,Conditions,Clouds,dailyrainin,SoftwareType,DateUTC
2013-06-12 00:03:00,78.0,74.0,-100.00,ENE,60,0.0,0.0,88,-99.99,,,-99.99,,2013-06-12 05:03:00,
2013-06-12 00:12:00,76.0,73.0,-100.00,ENE,75,0.0,0.0,91,-99.99,,,-99.99,,2013-06-12 05:12:00,
2013-06-12 00:22:00,76.0,73.0,-100.00,ENE,75,0.0,0.0,91,-99.99,,,-99.99,,2013-06-12 05:22:00,
2013-06-12 00:32:00,76.0,74.0,-100.00,ENE,65,0.0,0.0,94,-99.99,,,-99.99,,2013-06-12 05:32:00,
2013-06-12 00:42:00,74.0,73.0,-100.00,SE,125,0.0,0.0,96,-99.99,,,-99.99,,2013-06-12 05:42:00,
2013-06-12 00:52:00,74.0,73.0,-100.00,SE,125,0.0,0.0,96,-99.99,,,-99.99,,2013-06-12 05:52:00,
2013-06-12 01:02:00,73.0,73.0,-100.00,SE,125,0.0,0.0,99,-99.99,,,-99.99,,2013-06-12 06:02:00,
2013-06-12 01:12:00,72.0,72.0,-100.00,East,100,0.0,0.0,99,-99.99,,,-99.99,,2013-06-12 06:12:00,
2013-06-12 01:22:00,72.0,72.0,-100.00,East,100,0.0,0.0,99,-99.99,,,-99.99,,2013-06-12 06:22:00,
2013-06-12 01:32:00,72.0,72.0,-100.00,East,100,0.0,0.0,99,-99.99,,,-99.99,,2013-06-12 06:32:00,
2013-06-12 01:42:00,71.0,71.0,-100.00,ENE,60,0.0,0.0,99,-99.99,,,-99.99,,2013-06-12 06:42:00,
2013-06-12 01:52:00,71.0,71.0,-100.00,ENE,60,0.0,0.0,99,-99.99,,,-99.99,,2013-06-12 06:52:00,
2013-06-12 02:02:00,71.0,71.0,-100.00,East,95,0.0,0.0,99,-99.99,,,-99.99,,2013-06-12 07:02:00,
2013-06-12 02:12:00,71.0,70.0,-100.00,East,85,0.0,0.0,99,-99.99,,,-99.99,,2013-06-12 07:12:00,
2013-06-12 02:22:00,71.0,70.0,-100.00,East,85,0.0,0.0,99,-99.99,,,-99.99,,2013-06-12 07:22:00,
2013-06-12 02:33:00,70.0,70.0,-100.00,ENE,70,0.0,0.0,99,-99.99,,,-99.99,,2013-06-12 07:33:00,
2013-06-12 02:43:00,69.0,69.0,-100.00,SSW,195,0.0,0.0,99,-99.99,,,-99.99,,2013-06-12 07:43:00,
2013-06-12 02:53:00,69.0,69.0,-100.00,SSW,195,0.0,0.0,99,-99.99,,,-99.99,,2013-06-12 07:53:00,
2013-06-12 03:02:00,69.0,69.0,-100.00,North,10,0.0,0.0,99,-99.99,,,-99.99,,2013-06-12 08:02:00,
2013-06-12 03:12:00,69.0,69.0,-100.00,NE,45,0.0,0.0,99,-99.99,,,-99.99,,2013-06-12 08:12:00,
2013-06-12 03:22:00,69.0,69.0,-100.00,NE,45,0.0,0.0,99,-99.99,,,-99.99,,2013-06-12 08:22:00,
2013-06-12 03:33:00,69.0,68.0,-100.00,SE,135,0.0,0.0,99,-99.99,,,-99.99,,2013-06-12 08:33:00,
2013-06-12 03:43:00,68.0,68.0,-100.00,ESE,115,0.0,0.0,99,-99.99,,,-99.99,,2013-06-12 08:43:00,
2013-06-12 03:53:00,68.0,68.0,-100.00,ESE,115,0.0,0.0,99,-99.99,,,-99.99,,2013-06-12 08:53:00,
2013-06-12 04:01:00,69.0,68.0,-100.00,SE,125,0.0,0.0,99,-99.99,,,-99.99,,2013-06-12 09:01:00,
2013-06-12 04:11:00,68.0,68.0,-100.00,SE,140,0.0,0.0,99,-99.99,,,-99.99,,2013-06-12 09:11:00,
2013-06-12 04:22:00,68.0,68.0,-100.00,SE,140,0.0,0.0,99,-99.99,,,-99.99,,2013-06-12 09:22:00,
2013-06-12 04:33:00,68.0,68.0,-100.00,SSE,150,0.0,0.0,99,-99.99,,,-99.99,,2013-06-12 09:33:00,
2013-06-12 04:42:00,68.0,68.0,-100.00,East,90,0.0,0.0,99,-99.99,,,-99.99,,2013-06-12 09:42:00,
2013-06-12 04:53:00,68.0,68.0,-100.00,East,90,0.0,0.0,99,-99.99,,,-99.99,,2013-06-12 09:53:00,
2013-06-12 05:02:00,68.0,68.0,-100.00,SE,145,0.0,0.0,99,-99.99,,,-99.99,,2013-06-12 10:02:00,
2013-06-12 05:11:00,68.0,68.0,-100.00,SSE,150,0.0,0.0,99,-99.99,,,-99.99,,2013-06-12 10:11:00,
2013-06-12 05:23:00,68.0,68.0,-100.00,SSE,150,0.0,0.0,99,-99.99,,,-99.99,,2013-06-12 10:23:00,
2013-06-12 05:33:00,69.0,68.0,-100.00,SSE,165,0.0,0.0,99,-99.99,,,-99.99,,2013-06-12 10:33:00,
2013-06-12 05:43:00,69.0,69.0,-100.00,South,175,0.0,0.0,99,-99.99,,,-99.99,,2013-06-12 10:43:00,
2013-06-12 05:53:00,69.0,69.0,-100.00,South,175,0.0,0.0,99,-99.99,,,-99.99,,2013-06-12 10:53:00,
2013-06-12 06:02:00,69.0,69.0,-100.00,SSW,195,0.0,0.0,99,-99.99,,,-99.99,,2013-06-12 11:02:00,
2013-06-12 06:12:00,70.0,70.0,-100.00,South,180,0.0,0.0,99,-99.99,,,-99.99,,2013-06-12 11:12:00,
2013-06-12 06:24:00,70.0,70.0,-100.00,South,180,0.0,0.0,99,-99.99,,,-99.99,,2013-06-12 11:24:00,
2013-06-12 06:33:00,70.0,70.0,-100.00,South,170,0.0,0.0,99,-99.99,,,-99.99,,2013-06-12 11:33:00,
2013-06-12 06:43:00,70.0,70.0,-100.00,South,180,0.0,0.0,99,-99.99,,,-99.99,,2013-06-12 11:43:00,
2013-06-12 06:53:00,70.0,70.0,-100.00,South,180,0.0,0.0,99,-99.99,,,-99.99,,2013-06-12 11:53:00,
2013-06-12 07:02:00,71.0,70.0,-100.00,South,175,0.0,0.0,99,-99.99,,,-99.99,,2013-06-12 12:02:00,
2013-06-12 07:11:00,71.0,71.0,-100.00,SSE,165,0.0,0.0,99,-99.99,,,-99.99,,2013-06-12 12:11:00,
2013-06-12 07:23:00,71.0,71.0,-100.00,SSE,165,0.0,0.0,99,-99.99,,,-99.99,,2013-06-12 12:23:00,
2013-06-12 07:33:00,71.0,71.0,-100.00,South,170,0.0,0.0,99,-99.99,,,-99.99,,2013-06-12 12:33:00,
2013-06-12 07:42:00,72.0,72.0,-100.00,South,170,0.0,0.0,99,-99.99,,,-99.99,,2013-06-12 12:42:00,
2013-06-12 07:53:00,72.0,72.0,-100.00,South,170,0.0,0.0,99,-99.99,,,-99.99,,2013-06-12 12:53:00,
2013-06-12 08:01:00,73.0,72.0,-100.00,South,175,0.0,0.0,99,-99.99,,,-99.99,,2013-06-12 13:01:00,
2013-06-12 08:12:00,73.0,73.0,-100.00,SSW,195,0.0,0.0,99,-99.99,,,-99.99,,2013-06-12 13:12:00,
2013-06-12 08:22:00,73.0,73.0,-100.00,SSW,195,0.0,0.0,99,-99.99,,,-99.99,,2013-06-12 13:22:00,
2013-06-12 08:33:00,75.0,74.0,-100.00,SW,215,0.0,0.0,99,-99.99,,,-99.99,,2013-06-12 13:33:00,
2013-06-12 08:43:00,77.0,75.0,-100.00,South,180,0.0,0.0,92,-99.99,,,-99.99,,2013-06-12 13:43:00,
2013-06-12 08:53:00,77.0,75.0,-100.00,South,180,0.0,0.0,92,-99.99,,,-99.99,,2013-06-12 13:53:00,
2013-06-12 09:02:00,80.0,75.0,-100.00,South,180,0.0,0.0,86,-99.99,,,-99.99,,2013-06-12 14:02:00,
2013-06-12 09:11:00,80.0,73.0,-100.00,South,175,0.0,0.0,80,-99.99,,,-99.99,,2013-06-12 14:11:00,
2013-06-12 09:24:00,80.0,73.0,-100.00,South,175,0.0,0.0,80,-99.99,,,-99.99,,2013-06-12 14:24:00,
2013-06-12 09:33:00,81.0,74.0,-100.00,South,185,0.0,0.0,78,-99.99,,,-99.99,,2013-06-12 14:33:00,
2013-06-12 09:43:00,83.0,74.0,-100.00,South,180,0.0,0.0,73,-99.99,,,-99.99,,2013-06-12 14:43:00,
2013-06-12 09:53:00,83.0,74.0,-100.00,South,180,0.0,0.0,73,-99.99,,,-99.99,,2013-06-12 14:53:00,
2013-06-12 10:01:00,85.0,74.0,-100.00,South,185,0.0,0.0,69,-99.99,,,-99.99,,2013-06-12 15:01:00,
2013-06-12 10:12:00,85.0,73.0,-100.00,South,180,0.0,0.0,67,-99.99,,,-99.99,,2013-06-12 15:12:00,
2013-06-12 10:23:00,85.0,73.0,-100.00,South,180,0.0,0.0,67,-99.99,,,-99.99,,2013-06-12 15:23:00,
2013-06-12 10:33:00,85.0,73.0,-100.00,South,185,0.0,0.0,67,-99.99,,,-99.99,,2013-06-12 15:33:00,
2013-06-12 10:43:00,85.0,73.0,-100.00,South,190,0.0,0.0,68,-99.99,,,-99.99,,2013-06-12 15:43:00,
2013-06-12 10:52:00,85.0,73.0,-100.00,South,190,0.0,0.0,68,-99.99,,,-99.99,,2013-06-12 15:52:00,
2013-06-12 11:01:00,85.0,73.0,-100.00,South,185,0.0,0.0,68,-99.99,,,-99.99,,2013-06-12 16:01:00,
2013-06-12 11:12:00,86.0,74.0,-100.00,South,185,0.0,0.0,67,-99.99,,,-99.99,,2013-06-12 16:12:00,
2013-06-12 11:22:00,86.0,74.0,-100.00,South,185,0.0,0.0,67,-99.99,,,-99.99,,2013-06-12 16:22:00,
2013-06-12 11:32:00,86.0,74.0,-100.00,South,175,0.0,0.0,67,-99.99,,,-99.99,,2013-06-12 16:32:00,
2013-06-12 11:43:00,87.0,74.0,-100.00,SSW,195,0.0,0.0,64,-99.99,,,-99.99,,2013-06-12 16:43:00,
2013-06-12 11:53:00,87.0,74.0,-100.00,SSW,195,0.0,0.0,64,-99.99,,,-99.99,,2013-06-12 16:53:00,
2013-06-12 12:01:00,88.0,74.0,-100.00,SW,220,0.0,0.0,64,-99.99,,,-99.99,,2013-06-12 17:01:00,
2013-06-12 12:12:00,87.0,74.0,-100.00,South,180,0.0,0.0,65,-99.99,,,-99.99,,2013-06-12 17:12:00,
2013-06-12 12:23:00,87.0,74.0,-100.00,South,180,0.0,0.0,65,-99.99,,,-99.99,,2013-06-12 17:23:00,
2013-06-12 12:33:00,88.0,74.0,-100.00,South,185,0.0,0.0,65,-99.99,,,-99.99,,2013-06-12 17:33:00,
2013-06-12 12:42:00,88.0,74.0,-100.00,South,175,0.0,0.0,63,-99.99,,,-99.99,,2013-06-12 17:42:00,
2013-06-12 12:52:00,88.0,74.0,-100.00,South,175,0.0,0.0,63,-99.99,,,-99.99,,2013-06-12 17:52:00,
2013-06-12 13:02:00,90.0,74.0,-100.00,SW,225,0.0,0.0,61,-99.99,,,-99.99,,2013-06-12 18:02:00,
2013-06-12 13:12:00,90.0,74.0,-100.00,SSW,195,0.0,0.0,59,-99.99,,,-99.99,,2013-06-12 18:12:00,
2013-06-12 13:22:00,90.0,74.0,-100.00,SSW,195,0.0,0.0,59,-99.99,,,-99.99,,2013-06-12 18:22:00,
2013-06-12 13:32:00,91.0,73.0,-100.00,SW,235,0.0,0.0,56,-99.99,,,-99.99,,2013-06-12 18:32:00,
2013-06-12 13:43:00,92.0,74.0,-100.00,South,190,0.0,0.0,57,-99.99,,,-99.99,,2013-06-12 18:43:00,
2013-06-12 13:53:00,92.0,74.0,-100.00,South,190,0.0,0.0,57,-99.99,,,-99.99,,2013-06-12 18:53:00,
2013-06-12 14:01:00,92.0,74.0,-100.00,SW,235,0.0,0.0,56,-99.99,,,-99.99,,2013-06-12 19:01:00,
2013-06-12 14:11:00,92.0,73.0,-100.00,SW,230,0.0,0.0,55,-99.99,,,-99.99,,2013-06-12 19:11:00,
2013-06-12 14:22:00,92.0,73.0,-100.00,SW,230,0.0,0.0,55,-99.99,,,-99.99,,2013-06-12 19:22:00,
2013-06-12 14:32:00,92.0,73.0,-100.00,SW,235,0.0,0.0,54,-99.99,,,-99.99,,2013-06-12 19:32:00,
2013-06-12 14:42:00,92.0,73.0,-100.00,SSW,210,0.0,0.0,54,-99.99,,,-99.99,,2013-06-12 19:42:00,
2013-06-12 14:52:00,92.0,73.0,-100.00,SSW,210,0.0,0.0,54,-99.99,,,-99.99,,2013-06-12 19:52:00,
2013-06-12 15:01:00,92.0,73.0,-100.00,SW,235,0.0,0.0,54,-99.99,,,-99.99,,2013-06-12 20:01:00,
2013-06-12 15:11:00,92.0,73.0,-100.00,WSW,245,0.0,0.0,54,-99.99,,,-99.99,,2013-06-12 20:11:00,
2013-06-12 15:22:00,92.0,73.0,-100.00,WSW,245,0.0,0.0,54,-99.99,,,-99.99,,2013-06-12 20:22:00,
2013-06-12 15:32:00,92.0,72.0,-100.00,WSW,240,0.0,0.0,52,-99.99,,,-99.99,,2013-06-12 20:32:00,
2013-06-12 15:42:00,92.0,72.0,-100.00,WSW,245,0.0,0.0,52,-99.99,,,-99.99,,2013-06-12 20:42:00,
2013-06-12 15:54:00,92.0,72.0,-100.00,WSW,245,0.0,0.0,52,-99.99,,,-99.99,,2013-06-12 20:54:00,
2013-06-12 16:01:00,91.0,71.0,-100.00,SW,235,0.0,0.0,52,-99.99,,,-99.99,,2013-06-12 21:01:00,
2013-06-12 16:11:00,92.0,72.0,-100.00,WSW,245,0.0,0.0,53,-99.99,,,-99.99,,2013-06-12 21:11:00,
2013-06-12 16:22:00,92.0,72.0,-100.00,WSW,245,0.0,0.0,53,-99.99,,,-99.99,,2013-06-12 21:22:00,
2013-06-12 16:33:00,93.0,72.0,-100.00,WSW,240,0.0,0.0,51,-99.99,,,-99.99,,2013-06-12 21:33:00,
2013-06-12 16:43:00,93.0,72.0,-100.00,WSW,245,0.0,0.0,51,-99.99,,,-99.99,,2013-06-12 21:43:00,
2013-06-12 16:53:00,93.0,72.0,-100.00,WSW,245,0.0,0.0,51,-99.99,,,-99.99,,2013-06-12 21:53:00,
2013-06-12 17:01:00,92.0,72.0,-100.00,West,260,0.0,0.0,53,-99.99,,,-99.99,,2013-06-12 22:01:00,
2013-06-12 17:11:00,92.0,72.0,-100.00,West,260,0.0,0.0,53,-99.99,,,-99.99,,2013-06-12 22:11:00,
2013-06-12 17:22:00,92.0,72.0,-100.00,West,260,0.0,0.0,53,-99.99,,,-99.99,,2013-06-12 22:22:00,
2013-06-12 17:32:00,91.0,71.0,-100.00,WSW,245,0.0,0.0,53,-99.99,,,-99.99,,2013-06-12 22:32:00,
2013-06-12 17:43:00,90.0,72.0,-100.00,West,265,0.0,0.0,55,-99.99,,,-99.99,,2013-06-12 22:43:00,
2013-06-12 17:52:00,90.0,72.0,-100.00,West,265,0.0,0.0,55,-99.99,,,-99.99,,2013-06-12 22:52:00,
2013-06-12 18:02:00,90.0,72.0,-100.00,WSW,250,0.0,0.0,55,-99.99,,,-99.99,,2013-06-12 23:02:00,
2013-06-12 18:12:00,90.0,72.0,-100.00,WSW,240,0.0,0.0,55,-99.99,,,-99.99,,2013-06-12 23:12:00,
2013-06-12 18:22:00,90.0,72.0,-100.00,WSW,240,0.0,0.0,55,-99.99,,,-99.99,,2013-06-12 23:22:00,
2013-06-12 18:32:00,90.0,73.0,-100.00,SW,235,0.0,0.0,56,-99.99,,,-99.99,,2013-06-12 23:32:00,
2013-06-12 18:42:00,90.0,72.0,-100.00,SW,235,0.0,0.0,55,-99.99,,,-99.99,,2013-06-12 23:42:00,
2013-06-12 18:53:00,90.0,72.0,-100.00,SW,235,0.0,0.0,55,-99.99,,,-99.99,,2013-06-12 23:53:00,
2013-06-12 19:01:00,90.0,72.0,-100.00,West,265,0.0,0.0,56,-99.99,,,-99.99,,2013-06-13 00:01:00,
2013-06-12 19:12:00,89.0,72.0,-100.00,West,280,0.0,0.0,58,-99.99,,,-99.99,,2013-06-13 00:12:00,
2013-06-12 19:22:00,89.0,72.0,-100.00,West,280,0.0,0.0,58,-99.99,,,-99.99,,2013-06-13 00:22:00,
2013-06-12 19:32:00,89.0,72.0,-100.00,West,270,0.0,0.0,58,-99.99,,,-99.99,,2013-06-13 00:32:00,
2013-06-12 19:42:00,89.0,72.0,-100.00,West,270,0.0,0.0,59,-99.99,,,-99.99,,2013-06-13 00:42:00,
2013-06-12 19:52:00,89.0,72.0,-100.00,West,270,0.0,0.0,59,-99.99,,,-99.99,,2013-06-13 00:52:00,
2013-06-12 20:01:00,88.0,72.0,-100.00,West,270,0.0,0.0,59,-99.99,,,-99.99,,2013-06-13 01:01:00,
2013-06-12 20:12:00,88.0,71.0,-100.00,West,270,0.0,0.0,59,-99.99,,,-99.99,,2013-06-13 01:12:00,
2013-06-12 20:22:00,88.0,71.0,-100.00,West,270,0.0,0.0,59,-99.99,,,-99.99,,2013-06-13 01:22:00,
2013-06-12 20:32:00,87.0,72.0,-100.00,West,270,0.0,0.0,61,-99.99,,,-99.99,,2013-06-13 01:32:00,
2013-06-12 20:43:00,86.0,71.0,-100.00,WNW,285,0.0,0.0,61,-99.99,,,-99.99,,2013-06-13 01:43:00,
2013-06-12 20:53:00,86.0,71.0,-100.00,WNW,285,0.0,0.0,61,-99.99,,,-99.99,,2013-06-13 01:53:00,
2013-06-12 21:02:00,86.0,71.0,-100.00,West,265,0.0,0.0,62,-99.99,,,-99.99,,2013-06-13 02:02:00,
2013-06-12 21:12:00,85.0,72.0,-100.00,West,265,0.0,0.0,65,-99.99,,,-99.99,,2013-06-13 02:12:00,
2013-06-12 21:22:00,85.0,72.0,-100.00,West,265,0.0,0.0,65,-99.99,,,-99.99,,2013-06-13 02:22:00,
2013-06-12 21:33:00,84.0,72.0,-100.00,West,275,0.0,0.0,67,-99.99,,,-99.99,,2013-06-13 02:33:00,
2013-06-12 21:43:00,83.0,72.0,-100.00,West,275,0.0,0.0,69,-99.99,,,-99.99,,2013-06-13 02:43:00,
2013-06-12 21:52:00,83.0,72.0,-100.00,West,275,0.0,0.0,69,-99.99,,,-99.99,,2013-06-13 02:52:00,
2013-06-12 22:02:00,83.0,72.0,-100.00,West,270,0.0,0.0,71,-99.99,,,-99.99,,2013-06-13 03:02:00,
2013-06-12 22:12:00,83.0,73.0,-100.00,SW,235,0.0,0.0,73,-99.99,,,-99.99,,2013-06-13 03:12:00,
2013-06-12 22:22:00,83.0,73.0,-100.00,SW,235,0.0,0.0,73,-99.99,,,-99.99,,2013-06-13 03:22:00,
2013-06-12 22:33:00,82.0,73.0,-100.00,WNW,285,0.0,0.0,74,-99.99,,,-99.99,,2013-06-13 03:33:00,
2013-06-12 22:42:00,84.0,74.0,-100.00,NNW,330,0.0,0.0,71,-99.99,,,-99.99,,2013-06-13 03:42:00,
2013-06-12 22:52:00,84.0,74.0,-100.00,NNW,330,0.0,0.0,71,-99.99,,,-99.99,,2013-06-13 03:52:00,
2013-06-12 23:01:00,83.0,73.0,-100.00,NW,315,0.0,0.0,71,-99.99,,,-99.99,,2013-06-13 04:01:00,
2013-06-12 23:12:00,81.0,71.0,-100.00,NW,310,0.0,0.0,72,-99.99,,,-99.99,,2013-06-13 04:12:00,
2013-06-12 23:22:00,81.0,71.0,-100.00,NW,310,0.0,0.0,72,-99.99,,,-99.99,,2013-06-13 04:22:00,
2013-06-12 23:32:00,80.0,71.0,-100.00,NW,310,0.0,0.0,75,-99.99,,,-99.99,,2013-06-13 04:32:00,
2013-06-12 23:43:00,79.0,70.0,-100.00,NNW,340,0.0,0.0,75,-99.99,,,-99.99,,2013-06-13 04:43:00,
2013-06-12 23:54:00,79.0,70.0,-100.00,NNW,340,0.0,0.0,75,-99.99,,,-99.99,,2013-06-13 04:54:00,